RYR7 LPMA-LPPT
Flight info
| Callsign | RYR7 |
|---|---|
| Flight time | N/A |
| Altitude | 37000 |
| Route | DEGUN DCT NARTA DCT ESUTI |
| Aircraft | B38M/M-SDE1FGHILORVWXY/HB1 |
Departure
| Time | 2026-05-07 15:35 |
|---|---|
| Airport | Cristiano Ronaldo International Airport (LPMA) |
Arrival
| Time | N/A |
|---|---|
| Airport | Lisbon Humberto Delgado Airport (LPPT) |
| Time | Latitude | Longitude | Altitude | Speed | Heading |
|---|---|---|---|---|---|
| 2026-05-07 15:05 | 32.69359 | -16.77661 | 172 ft | 0 kts | 139° |
| 2026-05-07 15:27 | 32.69373 | -16.77676 | 172 ft | 4 kts | 139° |
| 2026-05-07 15:28 | 32.69389 | -16.77693 | 172 ft | 4 kts | 145° |
| 2026-05-07 15:28 | 32.69410 | -16.77701 | 172 ft | 4 kts | 199° |
| 2026-05-07 15:28 | 32.69429 | -16.77684 | 172 ft | 4 kts | 226° |
| 2026-05-07 15:28 | 32.69437 | -16.77673 | 172 ft | 1 kts | 226° |
| 2026-05-07 15:31 | 32.69428 | -16.77684 | 172 ft | 3 kts | 226° |
| 2026-05-07 15:31 | 32.69408 | -16.77710 | 172 ft | 5 kts | 226° |
| 2026-05-07 15:31 | 32.69375 | -16.77750 | 172 ft | 8 kts | 226° |
| 2026-05-07 15:31 | 32.69331 | -16.77804 | 172 ft | 10 kts | 226° |
| 2026-05-07 15:32 | 32.69291 | -16.77874 | 171 ft | 10 kts | 258° |
| 2026-05-07 15:32 | 32.69289 | -16.77966 | 172 ft | 12 kts | 270° |
| 2026-05-07 15:32 | 32.69261 | -16.78061 | 170 ft | 13 kts | 230° |
| 2026-05-07 15:32 | 32.69187 | -16.78147 | 167 ft | 17 kts | 224° |
| 2026-05-07 15:33 | 32.69092 | -16.78260 | 161 ft | 22 kts | 226° |
| 2026-05-07 15:33 | 32.68989 | -16.78376 | 156 ft | 13 kts | 216° |
| 2026-05-07 15:33 | 32.68910 | -16.78409 | 156 ft | 10 kts | 199° |
| 2026-05-07 15:33 | 32.68891 | -16.78462 | 156 ft | 6 kts | 296° |
| 2026-05-07 15:34 | 32.68915 | -16.78466 | 156 ft | 2 kts | 39° |
| 2026-05-07 15:34 | 32.68937 | -16.78441 | 156 ft | 8 kts | 44° |
| 2026-05-07 15:34 | 32.69051 | -16.78308 | 159 ft | 55 kts | 45° |
| 2026-05-07 15:34 | 32.69510 | -16.77771 | 176 ft | 127 kts | 45° |
| 2026-05-07 15:35 | 32.70274 | -16.76914 | 397 ft | 164 kts | 45° |
| 2026-05-07 15:35 | 32.71082 | -16.75918 | 1078 ft | 180 kts | 52° |
| 2026-05-07 15:35 | 32.71703 | -16.74551 | 1739 ft | 188 kts | 73° |
| 2026-05-07 15:35 | 32.71841 | -16.72955 | 2355 ft | 205 kts | 97° |
| 2026-05-07 15:36 | 32.71648 | -16.71193 | 2874 ft | 226 kts | 91° |
| 2026-05-07 15:36 | 32.71568 | -16.69235 | 3264 ft | 255 kts | 108° |
| 2026-05-07 15:36 | 32.70774 | -16.67385 | 4293 ft | 254 kts | 121° |
| 2026-05-07 15:36 | 32.69885 | -16.65490 | 5090 ft | 271 kts | 120° |
| 2026-05-07 15:37 | 32.68959 | -16.63479 | 5933 ft | 281 kts | 120° |
| 2026-05-07 15:37 | 32.67999 | -16.61409 | 6834 ft | 289 kts | 120° |
| 2026-05-07 15:37 | 32.67028 | -16.59317 | 7679 ft | 295 kts | 121° |
| 2026-05-07 15:37 | 32.66200 | -16.57059 | 8563 ft | 304 kts | 103° |
| 2026-05-07 15:38 | 32.66089 | -16.55997 | 8960 ft | 307 kts | 92° |